sensor_id;sensor_type;location;lat;lon;timestamp;P1;durP1;ratioP1;P2;durP2;ratioP2
7027;SDS011;3555;53.248;10.336;2022-12-10T00:01:02;20.53;;;10.07;;
7027;SDS011;3555;53.248;10.336;2022-12-10T00:03:30;19.30;;;10.70;;
7027;SDS011;3555;53.248;10.336;2022-12-10T00:05:59;19.37;;;10.30;;
7027;SDS011;3555;53.248;10.336;2022-12-10T00:08:26;22.00;;;10.57;;
7027;SDS011;3555;53.248;10.336;2022-12-10T00:10:53;24.13;;;11.97;;
7027;SDS011;3555;53.248;10.336;2022-12-10T00:13:21;19.43;;;10.17;;
7027;SDS011;3555;53.248;10.336;2022-12-10T00:15:48;21.93;;;11.03;;
7027;SDS011;3555;53.248;10.336;2022-12-10T00:18:15;26.00;;;11.20;;
7027;SDS011;3555;53.248;10.336;2022-12-10T00:20:42;21.33;;;10.60;;
7027;SDS011;3555;53.248;10.336;2022-12-10T00:23:09;18.47;;;10.83;;
7027;SDS011;3555;53.248;10.336;2022-12-10T00:25:36;22.97;;;11.60;;
7027;SDS011;3555;53.248;10.336;2022-12-10T00:28:02;22.90;;;11.73;;
7027;SDS011;3555;53.248;10.336;2022-12-10T00:30:31;21.93;;;11.50;;
7027;SDS011;3555;53.248;10.336;2022-12-10T00:32:59;21.17;;;11.37;;
7027;SDS011;3555;53.248;10.336;2022-12-10T00:35:26;24.77;;;11.80;;
7027;SDS011;3555;53.248;10.336;2022-12-10T00:37:53;18.47;;;9.57;;
7027;SDS011;3555;53.248;10.336;2022-12-10T00:40:20;19.20;;;10.47;;
7027;SDS011;3555;53.248;10.336;2022-12-10T00:42:47;17.73;;;10.13;;
7027;SDS011;3555;53.248;10.336;2022-12-10T00:45:14;21.60;;;10.73;;
7027;SDS011;3555;53.248;10.336;2022-12-10T00:47:42;21.27;;;10.93;;
7027;SDS011;3555;53.248;10.336;2022-12-10T00:50:09;19.37;;;10.47;;
7027;SDS011;3555;53.248;10.336;2022-12-10T00:52:36;18.40;;;9.83;;
7027;SDS011;3555;53.248;10.336;2022-12-10T00:55:03;21.10;;;9.90;;
7027;SDS011;3555;53.248;10.336;2022-12-10T00:57:30;20.17;;;9.53;;
7027;SDS011;3555;53.248;10.336;2022-12-10T00:59:57;18.07;;;9.67;;
7027;SDS011;3555;53.248;10.336;2022-12-10T01:02:24;15.97;;;8.83;;
7027;SDS011;3555;53.248;10.336;2022-12-10T01:04:53;17.37;;;8.97;;
7027;SDS011;3555;53.248;10.336;2022-12-10T01:07:20;15.53;;;8.60;;
7027;SDS011;3555;53.248;10.336;2022-12-10T01:09:47;14.97;;;8.97;;
7027;SDS011;3555;53.248;10.336;2022-12-10T01:12:13;16.80;;;9.43;;
7027;SDS011;3555;53.248;10.336;2022-12-10T01:14:40;16.30;;;8.40;;
7027;SDS011;3555;53.248;10.336;2022-12-10T01:17:07;15.17;;;8.73;;
7027;SDS011;3555;53.248;10.336;2022-12-10T01:19:34;14.00;;;7.87;;
7027;SDS011;3555;53.248;10.336;2022-12-10T01:22:02;15.13;;;7.20;;
7027;SDS011;3555;53.248;10.336;2022-12-10T01:24:30;14.43;;;7.70;;
7027;SDS011;3555;53.248;10.336;2022-12-10T01:26:57;12.07;;;7.03;;
7027;SDS011;3555;53.248;10.336;2022-12-10T01:29:24;12.23;;;7.37;;
7027;SDS011;3555;53.248;10.336;2022-12-10T01:31:53;11.83;;;6.20;;
7027;SDS011;3555;53.248;10.336;2022-12-10T01:34:22;13.00;;;7.30;;
7027;SDS011;3555;53.248;10.336;2022-12-10T01:36:50;10.53;;;6.13;;
7027;SDS011;3555;53.248;10.336;2022-12-10T01:39:20;7.70;;;5.00;;
7027;SDS011;3555;53.248;10.336;2022-12-10T01:41:49;8.17;;;5.40;;
7027;SDS011;3555;53.248;10.336;2022-12-10T01:47:21;7.57;;;4.67;;
7027;SDS011;3555;53.248;10.336;2022-12-10T01:49:48;6.97;;;4.50;;
7027;SDS011;3555;53.248;10.336;2022-12-10T01:52:15;6.57;;;4.30;;
7027;SDS011;3555;53.248;10.336;2022-12-10T01:54:44;6.50;;;4.43;;
7027;SDS011;3555;53.248;10.336;2022-12-10T01:57:13;6.07;;;4.57;;
7027;SDS011;3555;53.248;10.336;2022-12-10T01:59:42;7.27;;;4.67;;
7027;SDS011;3555;53.248;10.336;2022-12-10T02:02:13;8.00;;;5.47;;
7027;SDS011;3555;53.248;10.336;2022-12-10T02:04:47;7.73;;;4.80;;
7027;SDS011;3555;53.248;10.336;2022-12-10T02:07:24;6.93;;;4.93;;
7027;SDS011;3555;53.248;10.336;2022-12-10T02:09:58;6.40;;;4.50;;
7027;SDS011;3555;53.248;10.336;2022-12-10T02:12:32;7.00;;;4.63;;
7027;SDS011;3555;53.248;10.336;2022-12-10T02:15:06;9.83;;;4.93;;
7027;SDS011;3555;53.248;10.336;2022-12-10T02:17:40;7.30;;;4.77;;
7027;SDS011;3555;53.248;10.336;2022-12-10T02:20:11;6.60;;;4.90;;
7027;SDS011;3555;53.248;10.336;2022-12-10T02:22:42;9.60;;;5.27;;
7027;SDS011;3555;53.248;10.336;2022-12-10T02:25:14;8.07;;;5.23;;
7027;SDS011;3555;53.248;10.336;2022-12-10T02:27:44;6.03;;;4.30;;
7027;SDS011;3555;53.248;10.336;2022-12-10T02:30:17;8.73;;;5.23;;
7027;SDS011;3555;53.248;10.336;2022-12-10T02:32:45;8.53;;;5.53;;
7027;SDS011;3555;53.248;10.336;2022-12-10T02:35:16;9.03;;;5.57;;
7027;SDS011;3555;53.248;10.336;2022-12-10T02:37:47;9.97;;;6.17;;
7027;SDS011;3555;53.248;10.336;2022-12-10T02:40:17;7.80;;;5.27;;
7027;SDS011;3555;53.248;10.336;2022-12-10T02:42:49;7.73;;;5.70;;
7027;SDS011;3555;53.248;10.336;2022-12-10T02:45:18;8.40;;;5.77;;
7027;SDS011;3555;53.248;10.336;2022-12-10T02:47:48;10.23;;;6.10;;
7027;SDS011;3555;53.248;10.336;2022-12-10T02:50:16;9.80;;;6.67;;
7027;SDS011;3555;53.248;10.336;2022-12-10T02:52:45;8.10;;;5.50;;
7027;SDS011;3555;53.248;10.336;2022-12-10T02:55:13;8.73;;;5.50;;
7027;SDS011;3555;53.248;10.336;2022-12-10T02:57:41;8.90;;;5.87;;
7027;SDS011;3555;53.248;10.336;2022-12-10T03:00:16;8.73;;;6.13;;
7027;SDS011;3555;53.248;10.336;2022-12-10T03:02:50;8.80;;;5.60;;
7027;SDS011;3555;53.248;10.336;2022-12-10T03:05:27;10.77;;;5.90;;
7027;SDS011;3555;53.248;10.336;2022-12-10T03:08:03;9.03;;;6.27;;
7027;SDS011;3555;53.248;10.336;2022-12-10T03:10:33;9.43;;;5.97;;
7027;SDS011;3555;53.248;10.336;2022-12-10T03:13:06;8.53;;;6.20;;
7027;SDS011;3555;53.248;10.336;2022-12-10T03:15:40;8.57;;;6.00;;
7027;SDS011;3555;53.248;10.336;2022-12-10T03:18:08;11.27;;;5.77;;
7027;SDS011;3555;53.248;10.336;2022-12-10T03:20:38;9.20;;;6.13;;
7027;SDS011;3555;53.248;10.336;2022-12-10T03:23:10;7.27;;;5.60;;
7027;SDS011;3555;53.248;10.336;2022-12-10T03:25:41;7.60;;;5.40;;
7027;SDS011;3555;53.248;10.336;2022-12-10T03:28:08;8.57;;;5.80;;
7027;SDS011;3555;53.248;10.336;2022-12-10T03:30:36;9.50;;;6.10;;
7027;SDS011;3555;53.248;10.336;2022-12-10T03:33:05;10.53;;;5.70;;
7027;SDS011;3555;53.248;10.336;2022-12-10T03:35:32;10.23;;;6.60;;
7027;SDS011;3555;53.248;10.336;2022-12-10T03:37:59;11.97;;;6.30;;
7027;SDS011;3555;53.248;10.336;2022-12-10T03:40:27;10.90;;;6.93;;
7027;SDS011;3555;53.248;10.336;2022-12-10T03:42:54;11.13;;;7.10;;
7027;SDS011;3555;53.248;10.336;2022-12-10T03:45:21;11.97;;;7.80;;
7027;SDS011;3555;53.248;10.336;2022-12-10T03:47:48;12.27;;;7.57;;
7027;SDS011;3555;53.248;10.336;2022-12-10T03:50:16;12.30;;;7.90;;
7027;SDS011;3555;53.248;10.336;2022-12-10T03:52:43;12.43;;;7.63;;
7027;SDS011;3555;53.248;10.336;2022-12-10T03:55:10;12.17;;;7.70;;
7027;SDS011;3555;53.248;10.336;2022-12-10T03:57:37;12.07;;;7.83;;
7027;SDS011;3555;53.248;10.336;2022-12-10T04:00:05;13.63;;;7.87;;
7027;SDS011;3555;53.248;10.336;2022-12-10T04:02:32;12.00;;;8.10;;
7027;SDS011;3555;53.248;10.336;2022-12-10T04:04:59;15.20;;;8.20;;
7027;SDS011;3555;53.248;10.336;2022-12-10T04:07:28;14.07;;;8.70;;
7027;SDS011;3555;53.248;10.336;2022-12-10T04:09:55;13.10;;;8.73;;
7027;SDS011;3555;53.248;10.336;2022-12-10T04:12:21;12.63;;;7.90;;
7027;SDS011;3555;53.248;10.336;2022-12-10T04:14:48;12.07;;;7.93;;
7027;SDS011;3555;53.248;10.336;2022-12-10T04:17:32;14.60;;;8.53;;
7027;SDS011;3555;53.248;10.336;2022-12-10T04:19:59;11.60;;;7.37;;
7027;SDS011;3555;53.248;10.336;2022-12-10T04:22:28;12.63;;;7.67;;
7027;SDS011;3555;53.248;10.336;2022-12-10T04:25:12;11.53;;;7.93;;
7027;SDS011;3555;53.248;10.336;2022-12-10T04:27:57;14.83;;;8.40;;
7027;SDS011;3555;53.248;10.336;2022-12-10T04:30:24;13.73;;;8.43;;
7027;SDS011;3555;53.248;10.336;2022-12-10T04:32:51;14.20;;;8.30;;
7027;SDS011;3555;53.248;10.336;2022-12-10T04:35:18;14.00;;;9.00;;
7027;SDS011;3555;53.248;10.336;2022-12-10T04:37:46;15.70;;;9.43;;
7027;SDS011;3555;53.248;10.336;2022-12-10T04:40:13;14.60;;;9.60;;
7027;SDS011;3555;53.248;10.336;2022-12-10T04:42:40;16.73;;;10.03;;
7027;SDS011;3555;53.248;10.336;2022-12-10T04:45:07;18.27;;;10.10;;
7027;SDS011;3555;53.248;10.336;2022-12-10T04:47:34;16.33;;;9.80;;
7027;SDS011;3555;53.248;10.336;2022-12-10T04:50:01;16.17;;;9.73;;
7027;SDS011;3555;53.248;10.336;2022-12-10T04:52:28;18.10;;;10.60;;
7027;SDS011;3555;53.248;10.336;2022-12-10T04:54:56;14.87;;;8.60;;
7027;SDS011;3555;53.248;10.336;2022-12-10T04:57:23;14.90;;;9.13;;
7027;SDS011;3555;53.248;10.336;2022-12-10T04:59:50;15.87;;;10.00;;
7027;SDS011;3555;53.248;10.336;2022-12-10T05:02:17;16.80;;;10.10;;
7027;SDS011;3555;53.248;10.336;2022-12-10T05:04:43;15.40;;;9.97;;
7027;SDS011;3555;53.248;10.336;2022-12-10T05:07:10;16.93;;;10.73;;
7027;SDS011;3555;53.248;10.336;2022-12-10T05:09:37;17.90;;;10.37;;
7027;SDS011;3555;53.248;10.336;2022-12-10T05:12:06;18.50;;;10.80;;
7027;SDS011;3555;53.248;10.336;2022-12-10T05:14:33;17.20;;;10.87;;
7027;SDS011;3555;53.248;10.336;2022-12-10T05:17:00;21.27;;;11.63;;
7027;SDS011;3555;53.248;10.336;2022-12-10T05:19:27;23.90;;;11.60;;
7027;SDS011;3555;53.248;10.336;2022-12-10T05:21:53;19.77;;;12.00;;
7027;SDS011;3555;53.248;10.336;2022-12-10T05:24:38;24.17;;;12.43;;
7027;SDS011;3555;53.248;10.336;2022-12-10T05:27:06;19.77;;;11.43;;
7027;SDS011;3555;53.248;10.336;2022-12-10T05:29:33;21.37;;;12.60;;
7027;SDS011;3555;53.248;10.336;2022-12-10T05:32:00;22.80;;;11.60;;
7027;SDS011;3555;53.248;10.336;2022-12-10T05:34:28;20.70;;;11.50;;
7027;SDS011;3555;53.248;10.336;2022-12-10T05:36:55;21.20;;;10.57;;
7027;SDS011;3555;53.248;10.336;2022-12-10T05:39:22;22.60;;;12.03;;
7027;SDS011;3555;53.248;10.336;2022-12-10T05:41:49;21.40;;;11.93;;
7027;SDS011;3555;53.248;10.336;2022-12-10T05:44:17;20.90;;;11.77;;
7027;SDS011;3555;53.248;10.336;2022-12-10T05:46:44;19.80;;;11.47;;
7027;SDS011;3555;53.248;10.336;2022-12-10T05:49:11;23.13;;;12.50;;
7027;SDS011;3555;53.248;10.336;2022-12-10T05:51:38;23.40;;;13.33;;
7027;SDS011;3555;53.248;10.336;2022-12-10T05:54:05;21.27;;;12.07;;
7027;SDS011;3555;53.248;10.336;2022-12-10T05:56:34;19.47;;;11.50;;
7027;SDS011;3555;53.248;10.336;2022-12-10T05:59:02;23.53;;;12.43;;
7027;SDS011;3555;53.248;10.336;2022-12-10T06:01:32;20.17;;;11.20;;
7027;SDS011;3555;53.248;10.336;2022-12-10T06:04:01;19.97;;;11.83;;
7027;SDS011;3555;53.248;10.336;2022-12-10T06:06:30;23.13;;;12.57;;
7027;SDS011;3555;53.248;10.336;2022-12-10T06:08:58;15.43;;;8.80;;
7027;SDS011;3555;53.248;10.336;2022-12-10T06:11:25;14.17;;;8.27;;
7027;SDS011;3555;53.248;10.336;2022-12-10T06:13:53;20.90;;;10.60;;
7027;SDS011;3555;53.248;10.336;2022-12-10T06:16:21;20.47;;;11.70;;
7027;SDS011;3555;53.248;10.336;2022-12-10T06:18:49;19.90;;;11.40;;
7027;SDS011;3555;53.248;10.336;2022-12-10T06:21:16;23.27;;;13.77;;
7027;SDS011;3555;53.248;10.336;2022-12-10T06:23:44;20.70;;;11.23;;
7027;SDS011;3555;53.248;10.336;2022-12-10T06:26:13;19.60;;;10.73;;
7027;SDS011;3555;53.248;10.336;2022-12-10T06:28:41;18.30;;;10.57;;
7027;SDS011;3555;53.248;10.336;2022-12-10T06:31:10;21.13;;;11.60;;
7027;SDS011;3555;53.248;10.336;2022-12-10T06:33:38;20.30;;;11.73;;
7027;SDS011;3555;53.248;10.336;2022-12-10T06:36:07;20.67;;;11.53;;
7027;SDS011;3555;53.248;10.336;2022-12-10T06:38:35;18.23;;;10.37;;
7027;SDS011;3555;53.248;10.336;2022-12-10T06:41:03;18.50;;;11.23;;
7027;SDS011;3555;53.248;10.336;2022-12-10T06:43:31;18.13;;;11.40;;
7027;SDS011;3555;53.248;10.336;2022-12-10T06:46:00;21.50;;;11.40;;
7027;SDS011;3555;53.248;10.336;2022-12-10T06:48:30;21.10;;;11.77;;
7027;SDS011;3555;53.248;10.336;2022-12-10T06:50:57;23.27;;;11.73;;
7027;SDS011;3555;53.248;10.336;2022-12-10T06:53:26;24.47;;;12.70;;
7027;SDS011;3555;53.248;10.336;2022-12-10T06:55:52;22.07;;;12.00;;
7027;SDS011;3555;53.248;10.336;2022-12-10T06:58:19;23.87;;;12.53;;
7027;SDS011;3555;53.248;10.336;2022-12-10T07:00:46;25.97;;;12.67;;
7027;SDS011;3555;53.248;10.336;2022-12-10T07:03:13;25.33;;;12.23;;
7027;SDS011;3555;53.248;10.336;2022-12-10T07:05:40;23.90;;;12.43;;
7027;SDS011;3555;53.248;10.336;2022-12-10T07:08:07;25.60;;;12.77;;
7027;SDS011;3555;53.248;10.336;2022-12-10T07:10:35;25.60;;;13.27;;
7027;SDS011;3555;53.248;10.336;2022-12-10T07:13:02;25.73;;;13.23;;
7027;SDS011;3555;53.248;10.336;2022-12-10T07:15:30;25.43;;;12.57;;
7027;SDS011;3555;53.248;10.336;2022-12-10T07:17:57;26.57;;;12.20;;
7027;SDS011;3555;53.248;10.336;2022-12-10T07:20:24;24.27;;;13.33;;
7027;SDS011;3555;53.248;10.336;2022-12-10T07:22:51;25.57;;;12.63;;
7027;SDS011;3555;53.248;10.336;2022-12-10T07:25:18;22.90;;;11.60;;
7027;SDS011;3555;53.248;10.336;2022-12-10T07:27:46;22.13;;;11.53;;
7027;SDS011;3555;53.248;10.336;2022-12-10T07:30:13;23.37;;;12.13;;
7027;SDS011;3555;53.248;10.336;2022-12-10T07:32:40;23.17;;;11.17;;
7027;SDS011;3555;53.248;10.336;2022-12-10T07:35:07;26.60;;;12.27;;
7027;SDS011;3555;53.248;10.336;2022-12-10T07:37:34;22.50;;;11.50;;
7027;SDS011;3555;53.248;10.336;2022-12-10T07:40:01;23.30;;;12.03;;
7027;SDS011;3555;53.248;10.336;2022-12-10T07:42:28;22.90;;;11.87;;
7027;SDS011;3555;53.248;10.336;2022-12-10T07:44:56;21.33;;;10.77;;
7027;SDS011;3555;53.248;10.336;2022-12-10T07:47:23;21.73;;;11.50;;
7027;SDS011;3555;53.248;10.336;2022-12-10T07:49:50;22.67;;;10.80;;
7027;SDS011;3555;53.248;10.336;2022-12-10T07:52:17;24.80;;;11.63;;
7027;SDS011;3555;53.248;10.336;2022-12-10T07:54:44;24.27;;;11.47;;
7027;SDS011;3555;53.248;10.336;2022-12-10T07:57:11;22.37;;;12.20;;
7027;SDS011;3555;53.248;10.336;2022-12-10T07:59:39;19.93;;;11.17;;
7027;SDS011;3555;53.248;10.336;2022-12-10T08:02:08;21.13;;;11.50;;
7027;SDS011;3555;53.248;10.336;2022-12-10T08:04:35;21.87;;;11.23;;
7027;SDS011;3555;53.248;10.336;2022-12-10T08:07:02;22.10;;;11.17;;
7027;SDS011;3555;53.248;10.336;2022-12-10T08:09:29;21.97;;;11.50;;
7027;SDS011;3555;53.248;10.336;2022-12-10T08:11:56;20.53;;;11.17;;
7027;SDS011;3555;53.248;10.336;2022-12-10T08:14:23;22.00;;;11.37;;
7027;SDS011;3555;53.248;10.336;2022-12-10T08:16:50;21.40;;;10.53;;
7027;SDS011;3555;53.248;10.336;2022-12-10T08:19:19;23.43;;;11.83;;
7027;SDS011;3555;53.248;10.336;2022-12-10T08:21:45;21.73;;;10.67;;
7027;SDS011;3555;53.248;10.336;2022-12-10T08:24:12;21.80;;;10.73;;
7027;SDS011;3555;53.248;10.336;2022-12-10T08:26:39;22.13;;;11.30;;
7027;SDS011;3555;53.248;10.336;2022-12-10T08:29:06;21.60;;;11.20;;
7027;SDS011;3555;53.248;10.336;2022-12-10T08:31:33;20.30;;;10.87;;
7027;SDS011;3555;53.248;10.336;2022-12-10T08:34:00;25.30;;;12.43;;
7027;SDS011;3555;53.248;10.336;2022-12-10T08:36:28;24.77;;;12.50;;
7027;SDS011;3555;53.248;10.336;2022-12-10T08:38:55;19.43;;;10.67;;
7027;SDS011;3555;53.248;10.336;2022-12-10T08:41:22;21.40;;;11.20;;
7027;SDS011;3555;53.248;10.336;2022-12-10T08:43:51;21.70;;;11.27;;
7027;SDS011;3555;53.248;10.336;2022-12-10T08:46:18;23.70;;;11.27;;
7027;SDS011;3555;53.248;10.336;2022-12-10T08:48:45;25.53;;;11.80;;
7027;SDS011;3555;53.248;10.336;2022-12-10T08:51:13;23.43;;;11.57;;
7027;SDS011;3555;53.248;10.336;2022-12-10T08:53:43;21.30;;;11.00;;
7027;SDS011;3555;53.248;10.336;2022-12-10T08:56:10;21.03;;;10.83;;
7027;SDS011;3555;53.248;10.336;2022-12-10T08:58:38;19.80;;;10.37;;
7027;SDS011;3555;53.248;10.336;2022-12-10T09:01:06;25.33;;;11.73;;
7027;SDS011;3555;53.248;10.336;2022-12-10T09:03:33;23.73;;;11.30;;
7027;SDS011;3555;53.248;10.336;2022-12-10T09:06:02;25.97;;;11.50;;
7027;SDS011;3555;53.248;10.336;2022-12-10T09:08:30;22.37;;;12.17;;
7027;SDS011;3555;53.248;10.336;2022-12-10T09:11:00;20.47;;;11.20;;
7027;SDS011;3555;53.248;10.336;2022-12-10T09:13:31;21.67;;;12.40;;
7027;SDS011;3555;53.248;10.336;2022-12-10T09:15:58;22.90;;;11.50;;
7027;SDS011;3555;53.248;10.336;2022-12-10T09:18:24;24.97;;;13.23;;
7027;SDS011;3555;53.248;10.336;2022-12-10T09:20:51;21.87;;;12.17;;
7027;SDS011;3555;53.248;10.336;2022-12-10T09:23:18;23.60;;;11.60;;
7027;SDS011;3555;53.248;10.336;2022-12-10T09:25:45;22.70;;;12.13;;
7027;SDS011;3555;53.248;10.336;2022-12-10T09:28:14;23.73;;;12.70;;
7027;SDS011;3555;53.248;10.336;2022-12-10T09:30:41;26.47;;;13.10;;
7027;SDS011;3555;53.248;10.336;2022-12-10T09:33:08;24.97;;;11.63;;
7027;SDS011;3555;53.248;10.336;2022-12-10T09:35:38;21.40;;;11.53;;
7027;SDS011;3555;53.248;10.336;2022-12-10T09:38:06;23.27;;;12.13;;
7027;SDS011;3555;53.248;10.336;2022-12-10T09:40:35;21.43;;;11.33;;
7027;SDS011;3555;53.248;10.336;2022-12-10T09:43:09;24.20;;;13.60;;
7027;SDS011;3555;53.248;10.336;2022-12-10T09:45:47;21.60;;;10.80;;
7027;SDS011;3555;53.248;10.336;2022-12-10T09:48:21;21.53;;;12.23;;
7027;SDS011;3555;53.248;10.336;2022-12-10T09:50:59;26.87;;;13.27;;
7027;SDS011;3555;53.248;10.336;2022-12-10T09:53:31;22.73;;;11.00;;
7027;SDS011;3555;53.248;10.336;2022-12-10T09:55:59;21.33;;;11.07;;
7027;SDS011;3555;53.248;10.336;2022-12-10T09:58:30;25.20;;;12.97;;
7027;SDS011;3555;53.248;10.336;2022-12-10T10:00:57;21.90;;;11.23;;
7027;SDS011;3555;53.248;10.336;2022-12-10T10:03:26;21.93;;;11.67;;
7027;SDS011;3555;53.248;10.336;2022-12-10T10:05:55;21.87;;;11.50;;
7027;SDS011;3555;53.248;10.336;2022-12-10T10:08:23;23.33;;;11.53;;
7027;SDS011;3555;53.248;10.336;2022-12-10T10:10:54;20.00;;;11.50;;
7027;SDS011;3555;53.248;10.336;2022-12-10T10:13:26;18.30;;;11.10;;
7027;SDS011;3555;53.248;10.336;2022-12-10T10:16:01;19.40;;;11.70;;
7027;SDS011;3555;53.248;10.336;2022-12-10T10:18:43;19.27;;;10.43;;
7027;SDS011;3555;53.248;10.336;2022-12-10T10:21:14;20.33;;;10.90;;
7027;SDS011;3555;53.248;10.336;2022-12-10T10:23:46;21.33;;;11.77;;
7027;SDS011;3555;53.248;10.336;2022-12-10T10:26:13;19.27;;;11.57;;
7027;SDS011;3555;53.248;10.336;2022-12-10T10:28:42;20.03;;;11.70;;
7027;SDS011;3555;53.248;10.336;2022-12-10T10:31:12;19.77;;;11.33;;
7027;SDS011;3555;53.248;10.336;2022-12-10T10:33:47;24.07;;;12.87;;
7027;SDS011;3555;53.248;10.336;2022-12-10T10:36:15;21.83;;;11.93;;
7027;SDS011;3555;53.248;10.336;2022-12-10T10:38:46;20.80;;;11.57;;
7027;SDS011;3555;53.248;10.336;2022-12-10T10:41:13;21.43;;;12.47;;
7027;SDS011;3555;53.248;10.336;2022-12-10T10:43:42;21.13;;;12.03;;
7027;SDS011;3555;53.248;10.336;2022-12-10T10:46:11;20.07;;;11.33;;
7027;SDS011;3555;53.248;10.336;2022-12-10T10:48:40;21.33;;;11.00;;
7027;SDS011;3555;53.248;10.336;2022-12-10T10:51:07;19.90;;;11.37;;
7027;SDS011;3555;53.248;10.336;2022-12-10T10:53:41;22.77;;;11.60;;
7027;SDS011;3555;53.248;10.336;2022-12-10T10:56:10;21.83;;;12.13;;
7027;SDS011;3555;53.248;10.336;2022-12-10T10:58:49;18.53;;;10.27;;
7027;SDS011;3555;53.248;10.336;2022-12-10T11:01:20;19.27;;;10.03;;
7027;SDS011;3555;53.248;10.336;2022-12-10T11:03:50;18.17;;;10.27;;
7027;SDS011;3555;53.248;10.336;2022-12-10T11:06:21;18.20;;;11.23;;
7027;SDS011;3555;53.248;10.336;2022-12-10T11:08:56;18.03;;;10.57;;
7027;SDS011;3555;53.248;10.336;2022-12-10T11:11:25;16.23;;;9.83;;
7027;SDS011;3555;53.248;10.336;2022-12-10T11:16:50;17.30;;;9.97;;
7027;SDS011;3555;53.248;10.336;2022-12-10T11:19:25;18.47;;;10.73;;
7027;SDS011;3555;53.248;10.336;2022-12-10T11:21:52;16.80;;;10.43;;
7027;SDS011;3555;53.248;10.336;2022-12-10T11:24:19;22.07;;;11.63;;
7027;SDS011;3555;53.248;10.336;2022-12-10T11:26:49;18.30;;;10.03;;
7027;SDS011;3555;53.248;10.336;2022-12-10T11:29:31;18.00;;;9.90;;
7027;SDS011;3555;53.248;10.336;2022-12-10T11:32:16;15.40;;;9.37;;
7027;SDS011;3555;53.248;10.336;2022-12-10T11:34:56;17.07;;;10.03;;
7027;SDS011;3555;53.248;10.336;2022-12-10T11:37:32;14.37;;;9.20;;
7027;SDS011;3555;53.248;10.336;2022-12-10T11:40:06;17.60;;;10.67;;
7027;SDS011;3555;53.248;10.336;2022-12-10T11:42:51;15.20;;;9.57;;
7027;SDS011;3555;53.248;10.336;2022-12-10T11:45:32;17.10;;;10.00;;
7027;SDS011;3555;53.248;10.336;2022-12-10T11:48:13;16.03;;;9.07;;
7027;SDS011;3555;53.248;10.336;2022-12-10T11:50:53;16.10;;;9.47;;
7027;SDS011;3555;53.248;10.336;2022-12-10T11:53:32;14.93;;;9.77;;
7027;SDS011;3555;53.248;10.336;2022-12-10T11:56:15;15.80;;;9.23;;
7027;SDS011;3555;53.248;10.336;2022-12-10T11:58:59;15.53;;;9.77;;
7027;SDS011;3555;53.248;10.336;2022-12-10T12:01:45;15.17;;;9.30;;
7027;SDS011;3555;53.248;10.336;2022-12-10T12:04:25;13.83;;;8.50;;
7027;SDS011;3555;53.248;10.336;2022-12-10T12:09:54;17.20;;;9.23;;
7027;SDS011;3555;53.248;10.336;2022-12-10T12:12:35;17.50;;;8.83;;
7027;SDS011;3555;53.248;10.336;2022-12-10T12:15:13;18.60;;;9.77;;
7027;SDS011;3555;53.248;10.336;2022-12-10T12:17:47;16.73;;;10.23;;
7027;SDS011;3555;53.248;10.336;2022-12-10T12:20:19;17.47;;;9.80;;
7027;SDS011;3555;53.248;10.336;2022-12-10T12:22:52;16.33;;;9.73;;
7027;SDS011;3555;53.248;10.336;2022-12-10T12:25:26;18.40;;;10.17;;
7027;SDS011;3555;53.248;10.336;2022-12-10T12:27:57;17.10;;;10.27;;
7027;SDS011;3555;53.248;10.336;2022-12-10T12:30:31;18.40;;;9.93;;
7027;SDS011;3555;53.248;10.336;2022-12-10T12:33:03;17.97;;;10.00;;
7027;SDS011;3555;53.248;10.336;2022-12-10T12:35:38;15.30;;;9.80;;
7027;SDS011;3555;53.248;10.336;2022-12-10T12:38:15;20.37;;;10.73;;
7027;SDS011;3555;53.248;10.336;2022-12-10T12:40:53;15.53;;;9.77;;
7027;SDS011;3555;53.248;10.336;2022-12-10T12:43:25;18.40;;;10.20;;
7027;SDS011;3555;53.248;10.336;2022-12-10T12:45:59;20.03;;;10.43;;
7027;SDS011;3555;53.248;10.336;2022-12-10T12:48:32;14.80;;;10.00;;
7027;SDS011;3555;53.248;10.336;2022-12-10T12:51:05;17.70;;;10.00;;
7027;SDS011;3555;53.248;10.336;2022-12-10T12:53:36;16.63;;;10.17;;
7027;SDS011;3555;53.248;10.336;2022-12-10T12:56:03;15.40;;;10.07;;
7027;SDS011;3555;53.248;10.336;2022-12-10T12:58:36;15.60;;;9.23;;
7027;SDS011;3555;53.248;10.336;2022-12-10T13:01:11;14.77;;;8.93;;
7027;SDS011;3555;53.248;10.336;2022-12-10T13:03:46;14.33;;;9.20;;
7027;SDS011;3555;53.248;10.336;2022-12-10T13:06:17;14.93;;;8.40;;
7027;SDS011;3555;53.248;10.336;2022-12-10T13:08:48;15.23;;;8.93;;
7027;SDS011;3555;53.248;10.336;2022-12-10T13:11:27;16.37;;;10.00;;
7027;SDS011;3555;53.248;10.336;2022-12-10T13:14:04;14.10;;;9.00;;
7027;SDS011;3555;53.248;10.336;2022-12-10T13:16:47;14.80;;;9.10;;
7027;SDS011;3555;53.248;10.336;2022-12-10T13:19:22;15.33;;;9.57;;
7027;SDS011;3555;53.248;10.336;2022-12-10T13:21:59;16.47;;;10.17;;
7027;SDS011;3555;53.248;10.336;2022-12-10T13:27:15;15.07;;;9.20;;
7027;SDS011;3555;53.248;10.336;2022-12-10T13:29:45;13.60;;;8.57;;
7027;SDS011;3555;53.248;10.336;2022-12-10T13:32:18;17.37;;;10.40;;
7027;SDS011;3555;53.248;10.336;2022-12-10T13:34:47;16.13;;;9.97;;
7027;SDS011;3555;53.248;10.336;2022-12-10T13:38:02;16.17;;;9.93;;
7027;SDS011;3555;53.248;10.336;2022-12-10T13:40:38;13.10;;;8.83;;
7027;SDS011;3555;53.248;10.336;2022-12-10T13:43:26;14.07;;;8.53;;
7027;SDS011;3555;53.248;10.336;2022-12-10T13:46:23;14.90;;;8.50;;
7027;SDS011;3555;53.248;10.336;2022-12-10T13:48:52;18.97;;;11.20;;
7027;SDS011;3555;53.248;10.336;2022-12-10T13:51:29;15.70;;;9.30;;
7027;SDS011;3555;53.248;10.336;2022-12-10T13:57:23;13.23;;;8.50;;
7027;SDS011;3555;53.248;10.336;2022-12-10T14:00:13;14.20;;;9.17;;
7027;SDS011;3555;53.248;10.336;2022-12-10T14:05:53;13.77;;;7.53;;
7027;SDS011;3555;53.248;10.336;2022-12-10T14:08:31;12.73;;;7.93;;
7027;SDS011;3555;53.248;10.336;2022-12-10T14:10:59;15.43;;;8.03;;
7027;SDS011;3555;53.248;10.336;2022-12-10T14:13:30;12.23;;;7.97;;
7027;SDS011;3555;53.248;10.336;2022-12-10T14:16:01;14.83;;;8.83;;
7027;SDS011;3555;53.248;10.336;2022-12-10T14:18:31;12.43;;;7.50;;
7027;SDS011;3555;53.248;10.336;2022-12-10T14:20:58;10.63;;;7.00;;
7027;SDS011;3555;53.248;10.336;2022-12-10T14:23:33;13.50;;;8.17;;
7027;SDS011;3555;53.248;10.336;2022-12-10T14:26:03;13.97;;;8.60;;
7027;SDS011;3555;53.248;10.336;2022-12-10T14:28:32;24.83;;;13.67;;
7027;SDS011;3555;53.248;10.336;2022-12-10T14:31:05;15.03;;;9.20;;
7027;SDS011;3555;53.248;10.336;2022-12-10T14:33:36;13.93;;;7.83;;
7027;SDS011;3555;53.248;10.336;2022-12-10T14:36:04;10.83;;;7.23;;
7027;SDS011;3555;53.248;10.336;2022-12-10T14:38:33;13.87;;;7.77;;
7027;SDS011;3555;53.248;10.336;2022-12-10T14:41:01;12.63;;;7.83;;
7027;SDS011;3555;53.248;10.336;2022-12-10T14:43:31;12.87;;;8.53;;
7027;SDS011;3555;53.248;10.336;2022-12-10T14:46:02;11.83;;;7.60;;
7027;SDS011;3555;53.248;10.336;2022-12-10T14:48:30;10.93;;;7.47;;
7027;SDS011;3555;53.248;10.336;2022-12-10T14:51:10;10.63;;;7.03;;
7027;SDS011;3555;53.248;10.336;2022-12-10T14:53:41;12.20;;;8.13;;
7027;SDS011;3555;53.248;10.336;2022-12-10T14:56:08;13.70;;;8.57;;
7027;SDS011;3555;53.248;10.336;2022-12-10T14:58:42;13.03;;;8.47;;
7027;SDS011;3555;53.248;10.336;2022-12-10T15:01:13;11.30;;;7.37;;
7027;SDS011;3555;53.248;10.336;2022-12-10T15:03:46;11.37;;;7.57;;
7027;SDS011;3555;53.248;10.336;2022-12-10T15:06:15;11.27;;;7.27;;
7027;SDS011;3555;53.248;10.336;2022-12-10T15:08:45;11.60;;;7.40;;
7027;SDS011;3555;53.248;10.336;2022-12-10T15:11:14;11.40;;;7.30;;
7027;SDS011;3555;53.248;10.336;2022-12-10T15:13:44;14.57;;;8.30;;
7027;SDS011;3555;53.248;10.336;2022-12-10T15:16:16;11.33;;;8.00;;
7027;SDS011;3555;53.248;10.336;2022-12-10T15:18:44;13.93;;;8.27;;